sensor_id;sensor_type;location;lat;lon;timestamp;pressure;altitude;pressure_sealevel;temperature;humidity
41383;BME280;27971;53.902;9.118;2022-10-16T00:00:42;100883.0;;;19.58;33.1
41383;BME280;27971;53.902;9.118;2022-10-16T00:02:45;100884.0;;;19.72;32.96
41383;BME280;27971;53.902;9.118;2022-10-16T00:04:47;100883.0;;;19.69;32.98
41383;BME280;27971;53.902;9.118;2022-10-16T00:06:50;100883.0;;;19.67;32.93
41383;BME280;27971;53.902;9.118;2022-10-16T00:08:52;100887.0;;;19.77;32.87
41383;BME280;27971;53.902;9.118;2022-10-16T00:10:59;100889.0;;;19.7;32.97
41383;BME280;27971;53.902;9.118;2022-10-16T00:12:59;100889.0;;;19.74;32.9
41383;BME280;27971;53.902;9.118;2022-10-16T00:15:02;100888.0;;;19.66;33.03
41383;BME280;27971;53.902;9.118;2022-10-16T00:17:04;100889.0;;;19.7;32.97
41383;BME280;27971;53.902;9.118;2022-10-16T00:19:08;100889.0;;;19.64;32.99
41383;BME280;27971;53.902;9.118;2022-10-16T00:21:13;100890.0;;;19.73;32.92
41383;BME280;27971;53.902;9.118;2022-10-16T00:23:12;100890.0;;;19.63;33.0
41383;BME280;27971;53.902;9.118;2022-10-16T00:25:14;100892.0;;;19.69;32.9
41383;BME280;27971;53.902;9.118;2022-10-16T00:27:17;100891.0;;;19.78;32.84
41383;BME280;27971;53.902;9.118;2022-10-16T00:29:20;100890.0;;;19.74;32.81
41383;BME280;27971;53.902;9.118;2022-10-16T00:31:23;100889.0;;;19.77;32.8
41383;BME280;27971;53.902;9.118;2022-10-16T00:33:25;100890.0;;;19.72;32.87
41383;BME280;27971;53.902;9.118;2022-10-16T00:35:27;100895.0;;;19.68;32.85
41383;BME280;27971;53.902;9.118;2022-10-16T00:37:30;100897.0;;;19.65;32.86
41383;BME280;27971;53.902;9.118;2022-10-16T00:39:33;100896.0;;;19.65;32.86
41383;BME280;27971;53.902;9.118;2022-10-16T00:41:35;100897.0;;;19.74;32.82
41383;BME280;27971;53.902;9.118;2022-10-16T00:43:40;100900.0;;;19.7;32.75
41383;BME280;27971;53.902;9.118;2022-10-16T00:45:41;100900.0;;;19.64;32.91
41383;BME280;27971;53.902;9.118;2022-10-16T00:47:45;100899.0;;;19.54;33.07
41383;BME280;27971;53.902;9.118;2022-10-16T00:49:50;100901.0;;;19.57;33.11
41383;BME280;27971;53.902;9.118;2022-10-16T00:51:51;100904.0;;;19.59;33.09
41383;BME280;27971;53.902;9.118;2022-10-16T00:53:52;100905.0;;;19.57;33.06
41383;BME280;27971;53.902;9.118;2022-10-16T00:55:55;100902.0;;;19.6;33.11
41383;BME280;27971;53.902;9.118;2022-10-16T00:57:57;100901.0;;;19.47;33.19
41383;BME280;27971;53.902;9.118;2022-10-16T01:00:00;100904.0;;;19.54;33.14
41383;BME280;27971;53.902;9.118;2022-10-16T01:02:03;100902.0;;;19.57;33.11
41383;BME280;27971;53.902;9.118;2022-10-16T01:04:05;100904.0;;;19.5;33.17
41383;BME280;27971;53.902;9.118;2022-10-16T01:06:16;100906.0;;;19.44;33.24
41383;BME280;27971;53.902;9.118;2022-10-16T01:08:13;100908.0;;;19.55;33.18
41383;BME280;27971;53.902;9.118;2022-10-16T01:10:21;100910.0;;;19.52;33.18
41383;BME280;27971;53.902;9.118;2022-10-16T01:12:23;100913.0;;;19.43;33.33
41383;BME280;27971;53.902;9.118;2022-10-16T01:14:24;100912.0;;;19.28;33.46
41383;BME280;27971;53.902;9.118;2022-10-16T01:16:28;100913.0;;;19.37;33.37
41383;BME280;27971;53.902;9.118;2022-10-16T01:18:30;100912.0;;;19.2;33.55
41383;BME280;27971;53.902;9.118;2022-10-16T01:20:29;100912.0;;;19.26;33.5
41383;BME280;27971;53.902;9.118;2022-10-16T01:22:37;100914.0;;;19.43;33.3
41383;BME280;27971;53.902;9.118;2022-10-16T01:24:37;100912.0;;;19.26;33.47
41383;BME280;27971;53.902;9.118;2022-10-16T01:26:47;100911.0;;;19.39;33.34
41383;BME280;27971;53.902;9.118;2022-10-16T01:28:41;100911.0;;;19.34;33.41
41383;BME280;27971;53.902;9.118;2022-10-16T01:30:40;100913.0;;;19.43;33.31
41383;BME280;27971;53.902;9.118;2022-10-16T01:32:48;100915.0;;;19.41;33.29
41383;BME280;27971;53.902;9.118;2022-10-16T01:34:49;100913.0;;;19.23;33.47
41383;BME280;27971;53.902;9.118;2022-10-16T01:36:52;100912.0;;;19.43;33.28
41383;BME280;27971;53.902;9.118;2022-10-16T01:38:53;100913.0;;;19.52;33.19
41383;BME280;27971;53.902;9.118;2022-10-16T01:40:56;100913.0;;;19.49;33.22
41383;BME280;27971;53.902;9.118;2022-10-16T01:43:05;100912.0;;;19.37;33.36
41383;BME280;27971;53.902;9.118;2022-10-16T01:45:01;100910.0;;;19.27;33.46
41383;BME280;27971;53.902;9.118;2022-10-16T01:47:03;100907.0;;;19.25;33.47
41383;BME280;27971;53.902;9.118;2022-10-16T01:49:06;100904.0;;;19.11;33.59
41383;BME280;27971;53.902;9.118;2022-10-16T01:51:10;100900.0;;;18.91;33.79
41383;BME280;27971;53.902;9.118;2022-10-16T01:53:13;100898.0;;;19.2;33.48
41383;BME280;27971;53.902;9.118;2022-10-16T01:55:17;100899.0;;;19.26;33.4
41383;BME280;27971;53.902;9.118;2022-10-16T01:57:17;100897.0;;;19.25;33.41
41383;BME280;27971;53.902;9.118;2022-10-16T01:59:21;100899.0;;;19.3;33.34
41383;BME280;27971;53.902;9.118;2022-10-16T02:01:23;100900.0;;;19.17;33.48
41383;BME280;27971;53.902;9.118;2022-10-16T02:03:24;100900.0;;;19.01;33.64
41383;BME280;27971;53.902;9.118;2022-10-16T02:05:30;100903.0;;;19.26;33.45
41383;BME280;27971;53.902;9.118;2022-10-16T02:07:29;100905.0;;;19.45;33.24
41383;BME280;27971;53.902;9.118;2022-10-16T02:09:33;100907.0;;;19.41;33.21
41383;BME280;27971;53.902;9.118;2022-10-16T02:11:34;100905.0;;;19.42;33.22
41383;BME280;27971;53.902;9.118;2022-10-16T02:13:39;100904.0;;;19.46;33.2
41383;BME280;27971;53.902;9.118;2022-10-16T02:15:39;100900.0;;;19.26;33.37
41383;BME280;27971;53.902;9.118;2022-10-16T02:17:42;100900.0;;;19.41;33.23
41383;BME280;27971;53.902;9.118;2022-10-16T02:19:47;100897.0;;;19.48;33.12
41383;BME280;27971;53.902;9.118;2022-10-16T02:21:50;100895.0;;;19.34;33.28
41383;BME280;27971;53.902;9.118;2022-10-16T02:23:53;100901.0;;;19.32;33.32
41383;BME280;27971;53.902;9.118;2022-10-16T02:25:54;100905.0;;;19.55;33.09
41383;BME280;27971;53.902;9.118;2022-10-16T02:28:00;100905.0;;;19.54;33.04
41383;BME280;27971;53.902;9.118;2022-10-16T02:30:03;100907.0;;;19.61;33.02
41383;BME280;27971;53.902;9.118;2022-10-16T02:32:04;100909.0;;;19.39;33.24
41383;BME280;27971;53.902;9.118;2022-10-16T02:34:06;100909.0;;;19.34;33.25
41383;BME280;27971;53.902;9.118;2022-10-16T02:36:08;100907.0;;;19.27;33.28
41383;BME280;27971;53.902;9.118;2022-10-16T02:38:11;100911.0;;;19.41;33.2
41383;BME280;27971;53.902;9.118;2022-10-16T02:40:14;100913.0;;;19.51;33.06
41383;BME280;27971;53.902;9.118;2022-10-16T02:42:18;100910.0;;;19.48;33.1
41383;BME280;27971;53.902;9.118;2022-10-16T02:44:19;100908.0;;;19.39;33.19
41383;BME280;27971;53.902;9.118;2022-10-16T02:46:21;100910.0;;;19.13;33.43
41383;BME280;27971;53.902;9.118;2022-10-16T02:48:24;100910.0;;;19.21;33.34
41383;BME280;27971;53.902;9.118;2022-10-16T02:50:26;100911.0;;;19.26;33.31
41383;BME280;27971;53.902;9.118;2022-10-16T02:52:28;100910.0;;;19.29;33.28
41383;BME280;27971;53.902;9.118;2022-10-16T02:54:31;100906.0;;;19.18;33.37
41383;BME280;27971;53.902;9.118;2022-10-16T02:56:34;100905.0;;;19.23;33.3
41383;BME280;27971;53.902;9.118;2022-10-16T02:58:36;100908.0;;;19.34;33.22
41383;BME280;27971;53.902;9.118;2022-10-16T03:00:39;100907.0;;;19.25;33.3
41383;BME280;27971;53.902;9.118;2022-10-16T03:02:42;100908.0;;;19.29;33.27
41383;BME280;27971;53.902;9.118;2022-10-16T03:04:44;100907.0;;;19.29;33.25
41383;BME280;27971;53.902;9.118;2022-10-16T03:06:46;100903.0;;;19.1;33.45
41383;BME280;27971;53.902;9.118;2022-10-16T03:08:49;100902.0;;;18.97;33.57
41383;BME280;27971;53.902;9.118;2022-10-16T03:10:51;100903.0;;;19.1;33.47
41383;BME280;27971;53.902;9.118;2022-10-16T03:12:54;100903.0;;;19.15;33.41
41383;BME280;27971;53.902;9.118;2022-10-16T03:14:56;100902.0;;;19.19;33.38
41383;BME280;27971;53.902;9.118;2022-10-16T03:16:59;100902.0;;;19.2;33.33
41383;BME280;27971;53.902;9.118;2022-10-16T03:19:02;100905.0;;;19.09;33.39
41383;BME280;27971;53.902;9.118;2022-10-16T03:21:04;100908.0;;;19.11;33.36
41383;BME280;27971;53.902;9.118;2022-10-16T03:23:06;100910.0;;;19.22;33.26
41383;BME280;27971;53.902;9.118;2022-10-16T03:25:08;100914.0;;;19.19;33.36
41383;BME280;27971;53.902;9.118;2022-10-16T03:27:11;100918.0;;;19.37;33.15
41383;BME280;27971;53.902;9.118;2022-10-16T03:29:13;100920.0;;;19.23;33.27
41383;BME280;27971;53.902;9.118;2022-10-16T03:31:16;100923.0;;;19.29;33.26
41383;BME280;27971;53.902;9.118;2022-10-16T03:33:18;100927.0;;;19.29;33.23
41383;BME280;27971;53.902;9.118;2022-10-16T03:35:21;100927.0;;;19.17;33.34
41383;BME280;27971;53.902;9.118;2022-10-16T03:37:23;100928.0;;;19.22;33.29
41383;BME280;27971;53.902;9.118;2022-10-16T03:39:25;100925.0;;;19.16;33.36
41383;BME280;27971;53.902;9.118;2022-10-16T03:41:28;100929.0;;;19.12;33.38
41383;BME280;27971;53.902;9.118;2022-10-16T03:43:30;100932.0;;;19.32;33.18
41383;BME280;27971;53.902;9.118;2022-10-16T03:45:33;100932.0;;;19.23;33.22
41383;BME280;27971;53.902;9.118;2022-10-16T03:47:35;100932.0;;;19.3;33.17
41383;BME280;27971;53.902;9.118;2022-10-16T03:49:37;100929.0;;;19.12;33.46
41383;BME280;27971;53.902;9.118;2022-10-16T03:51:40;100930.0;;;19.51;33.2
41383;BME280;27971;53.902;9.118;2022-10-16T03:53:42;100934.0;;;19.6;33.08
41383;BME280;27971;53.902;9.118;2022-10-16T03:55:44;100936.0;;;19.66;33.05
41383;BME280;27971;53.902;9.118;2022-10-16T03:57:46;100939.0;;;19.78;32.84
41383;BME280;27971;53.902;9.118;2022-10-16T03:59:49;100935.0;;;19.76;32.86
41383;BME280;27971;53.902;9.118;2022-10-16T04:01:51;100934.0;;;19.78;32.77
41383;BME280;27971;53.902;9.118;2022-10-16T04:03:53;100932.0;;;19.85;32.66
41383;BME280;27971;53.902;9.118;2022-10-16T04:05:56;100936.0;;;19.82;32.63
41383;BME280;27971;53.902;9.118;2022-10-16T04:07:58;100938.0;;;19.89;32.65
41383;BME280;27971;53.902;9.118;2022-10-16T04:10:00;100939.0;;;19.96;32.51
41383;BME280;27971;53.902;9.118;2022-10-16T04:12:03;100942.0;;;19.88;32.61
41383;BME280;27971;53.902;9.118;2022-10-16T04:14:05;100946.0;;;19.95;32.55
41383;BME280;27971;53.902;9.118;2022-10-16T04:16:08;100950.0;;;19.89;32.64
41383;BME280;27971;53.902;9.118;2022-10-16T04:18:10;100953.0;;;20.01;32.52
41383;BME280;27971;53.902;9.118;2022-10-16T04:20:12;100957.0;;;19.94;32.63
41383;BME280;27971;53.902;9.118;2022-10-16T04:22:15;100963.0;;;20.04;32.55
41383;BME280;27971;53.902;9.118;2022-10-16T04:24:17;100965.0;;;20.05;32.44
41383;BME280;27971;53.902;9.118;2022-10-16T04:26:20;100967.0;;;19.96;32.56
41383;BME280;27971;53.902;9.118;2022-10-16T04:28:22;100962.0;;;19.99;32.55
41383;BME280;27971;53.902;9.118;2022-10-16T04:30:25;100966.0;;;19.94;32.6
41383;BME280;27971;53.902;9.118;2022-10-16T04:32:27;100971.0;;;19.97;32.62
41383;BME280;27971;53.902;9.118;2022-10-16T04:34:30;100972.0;;;19.97;32.65
41383;BME280;27971;53.902;9.118;2022-10-16T04:36:32;100972.0;;;19.85;32.69
41383;BME280;27971;53.902;9.118;2022-10-16T04:38:34;100972.0;;;19.9;32.5
41383;BME280;27971;53.902;9.118;2022-10-16T04:40:37;100977.0;;;19.55;32.64
41383;BME280;27971;53.902;9.118;2022-10-16T04:42:39;100980.0;;;19.74;32.64
41383;BME280;27971;53.902;9.118;2022-10-16T04:44:42;100984.0;;;19.65;32.67
41383;BME280;27971;53.902;9.118;2022-10-16T04:46:44;100984.0;;;19.73;32.61
41383;BME280;27971;53.902;9.118;2022-10-16T04:48:46;100986.0;;;19.7;32.67
41383;BME280;27971;53.902;9.118;2022-10-16T04:50:49;100989.0;;;19.68;32.72
41383;BME280;27971;53.902;9.118;2022-10-16T04:52:51;100991.0;;;19.56;32.84
41383;BME280;27971;53.902;9.118;2022-10-16T04:54:54;100989.0;;;19.45;32.93
41383;BME280;27971;53.902;9.118;2022-10-16T04:56:57;100988.0;;;19.45;33.04
41383;BME280;27971;53.902;9.118;2022-10-16T04:58:59;100988.0;;;19.44;33.02
41383;BME280;27971;53.902;9.118;2022-10-16T05:01:01;100988.0;;;19.32;33.12
41383;BME280;27971;53.902;9.118;2022-10-16T05:03:05;100986.0;;;19.58;32.86
41383;BME280;27971;53.902;9.118;2022-10-16T05:05:08;100988.0;;;19.28;33.08
41383;BME280;27971;53.902;9.118;2022-10-16T05:07:10;100988.0;;;19.08;33.17
41383;BME280;27971;53.902;9.118;2022-10-16T05:09:13;100989.0;;;19.06;33.13
41383;BME280;27971;53.902;9.118;2022-10-16T05:11:15;100989.0;;;19.08;32.86
41383;BME280;27971;53.902;9.118;2022-10-16T05:13:17;100989.0;;;18.81;33.13
41383;BME280;27971;53.902;9.118;2022-10-16T05:15:20;100987.0;;;18.51;33.28
41383;BME280;27971;53.902;9.118;2022-10-16T05:17:23;100988.0;;;18.24;33.16
41383;BME280;27971;53.902;9.118;2022-10-16T05:19:25;100988.0;;;18.6;32.68
41383;BME280;27971;53.902;9.118;2022-10-16T05:21:27;100988.0;;;19.03;32.19
41383;BME280;27971;53.902;9.118;2022-10-16T05:23:30;100988.0;;;18.32;32.69
41383;BME280;27971;53.902;9.118;2022-10-16T05:25:32;100990.0;;;18.07;32.9
41383;BME280;27971;53.902;9.118;2022-10-16T05:27:34;100996.0;;;17.74;33.05
41383;BME280;27971;53.902;9.118;2022-10-16T05:29:37;100999.0;;;18.4;32.29
41383;BME280;27971;53.902;9.118;2022-10-16T05:31:39;101000.0;;;18.71;31.81
41383;BME280;27971;53.902;9.118;2022-10-16T05:33:43;100999.0;;;19.06;31.21
41383;BME280;27971;53.902;9.118;2022-10-16T05:35:45;100996.0;;;18.75;31.32
41383;BME280;27971;53.902;9.118;2022-10-16T05:37:47;100998.0;;;19.08;30.89
41383;BME280;27971;53.902;9.118;2022-10-16T05:39:50;100995.0;;;19.41;30.58
41383;BME280;27971;53.902;9.118;2022-10-16T05:41:52;100995.0;;;19.47;30.51
41383;BME280;27971;53.902;9.118;2022-10-16T05:43:54;100994.0;;;20.56;29.44
41383;BME280;27971;53.902;9.118;2022-10-16T05:45:57;100991.0;;;19.84;30.0
41383;BME280;27971;53.902;9.118;2022-10-16T05:47:59;100991.0;;;19.95;29.91
41383;BME280;27971;53.902;9.118;2022-10-16T05:50:03;100990.0;;;20.5;29.27
41383;BME280;27971;53.902;9.118;2022-10-16T05:52:04;100993.0;;;20.19;29.42
41383;BME280;27971;53.902;9.118;2022-10-16T05:54:07;100995.0;;;21.3;28.47
41383;BME280;27971;53.902;9.118;2022-10-16T05:56:11;101002.0;;;21.63;28.13
41383;BME280;27971;53.902;9.118;2022-10-16T05:58:12;101002.0;;;20.14;29.3
41383;BME280;27971;53.902;9.118;2022-10-16T06:00:14;101005.0;;;20.38;29.18
41383;BME280;27971;53.902;9.118;2022-10-16T06:02:16;101005.0;;;21.82;28.01
41383;BME280;27971;53.902;9.118;2022-10-16T06:04:19;101006.0;;;23.25;26.79
41383;BME280;27971;53.902;9.118;2022-10-16T06:06:23;101010.0;;;22.8;27.14
41383;BME280;27971;53.902;9.118;2022-10-16T06:08:24;101016.0;;;23.24;26.86
41383;BME280;27971;53.902;9.118;2022-10-16T06:10:27;101023.0;;;22.66;27.29
41383;BME280;27971;53.902;9.118;2022-10-16T06:12:29;101026.0;;;22.41;27.51
41383;BME280;27971;53.902;9.118;2022-10-16T06:14:32;101027.0;;;22.38;27.55
41383;BME280;27971;53.902;9.118;2022-10-16T06:16:34;101028.0;;;22.19;27.81
41383;BME280;27971;53.902;9.118;2022-10-16T06:18:36;101026.0;;;22.77;27.33
41383;BME280;27971;53.902;9.118;2022-10-16T06:20:38;101025.0;;;22.54;27.49
41383;BME280;27971;53.902;9.118;2022-10-16T06:22:40;101031.0;;;21.43;28.45
41383;BME280;27971;53.902;9.118;2022-10-16T06:24:43;101034.0;;;21.93;28.04
41383;BME280;27971;53.902;9.118;2022-10-16T06:26:46;101034.0;;;22.5;27.58
41383;BME280;27971;53.902;9.118;2022-10-16T06:28:49;101034.0;;;23.26;26.94
41383;BME280;27971;53.902;9.118;2022-10-16T06:30:59;101037.0;;;22.75;27.34
41383;BME280;27971;53.902;9.118;2022-10-16T06:32:53;101039.0;;;21.88;28.16
41383;BME280;27971;53.902;9.118;2022-10-16T06:34:56;101041.0;;;23.07;27.24
41383;BME280;27971;53.902;9.118;2022-10-16T06:36:58;101043.0;;;22.98;27.27
41383;BME280;27971;53.902;9.118;2022-10-16T06:39:00;101047.0;;;22.01;27.97
41383;BME280;27971;53.902;9.118;2022-10-16T06:41:04;101052.0;;;22.01;28.01
41383;BME280;27971;53.902;9.118;2022-10-16T06:43:05;101053.0;;;22.71;27.45
41383;BME280;27971;53.902;9.118;2022-10-16T06:45:09;101056.0;;;21.7;28.33
41383;BME280;27971;53.902;9.118;2022-10-16T06:47:11;101059.0;;;22.1;28.12
41383;BME280;27971;53.902;9.118;2022-10-16T06:49:13;101064.0;;;22.29;28.03
41383;BME280;27971;53.902;9.118;2022-10-16T06:51:17;101071.0;;;22.17;28.08
41383;BME280;27971;53.902;9.118;2022-10-16T06:53:19;101076.0;;;21.48;28.8
41383;BME280;27971;53.902;9.118;2022-10-16T06:55:21;101082.0;;;21.75;28.66
41383;BME280;27971;53.902;9.118;2022-10-16T06:57:23;101085.0;;;22.28;28.15
41383;BME280;27971;53.902;9.118;2022-10-16T06:59:26;101089.0;;;22.13;28.26
41383;BME280;27971;53.902;9.118;2022-10-16T07:01:28;101091.0;;;22.0;28.4
41383;BME280;27971;53.902;9.118;2022-10-16T07:03:31;101094.0;;;22.19;28.24
41383;BME280;27971;53.902;9.118;2022-10-16T07:05:37;101095.0;;;22.03;28.38
41383;BME280;27971;53.902;9.118;2022-10-16T07:07:37;101097.0;;;21.78;28.74
41383;BME280;27971;53.902;9.118;2022-10-16T07:09:40;101096.0;;;22.76;27.87
41383;BME280;27971;53.902;9.118;2022-10-16T07:11:42;101094.0;;;22.6;27.95
41383;BME280;27971;53.902;9.118;2022-10-16T07:13:46;101099.0;;;22.04;28.53
41383;BME280;27971;53.902;9.118;2022-10-16T07:15:48;101102.0;;;22.96;27.82
41383;BME280;27971;53.902;9.118;2022-10-16T07:17:50;101103.0;;;21.69;28.79
41383;BME280;27971;53.902;9.118;2022-10-16T07:19:53;101105.0;;;22.62;28.06
41383;BME280;27971;53.902;9.118;2022-10-16T07:21:55;101101.0;;;23.75;27.09
41383;BME280;27971;53.902;9.118;2022-10-16T07:23:59;101099.0;;;23.04;27.55
41383;BME280;27971;53.902;9.118;2022-10-16T07:26:00;101097.0;;;22.68;27.93
41383;BME280;27971;53.902;9.118;2022-10-16T07:28:03;101097.0;;;22.86;27.79
41383;BME280;27971;53.902;9.118;2022-10-16T07:30:06;101100.0;;;22.45;28.18
41383;BME280;27971;53.902;9.118;2022-10-16T07:32:07;101099.0;;;22.16;28.44
41383;BME280;27971;53.902;9.118;2022-10-16T07:34:11;101094.0;;;21.37;29.04
41383;BME280;27971;53.902;9.118;2022-10-16T07:36:13;101097.0;;;21.93;28.62
41383;BME280;27971;53.902;9.118;2022-10-16T07:38:16;101100.0;;;22.56;28.13
41383;BME280;27971;53.902;9.118;2022-10-16T07:40:19;101104.0;;;22.71;27.95
41383;BME280;27971;53.902;9.118;2022-10-16T07:42:21;101104.0;;;21.9;28.61
41383;BME280;27971;53.902;9.118;2022-10-16T07:44:24;101102.0;;;22.64;28.04
41383;BME280;27971;53.902;9.118;2022-10-16T07:46:26;101097.0;;;22.41;28.22
41383;BME280;27971;53.902;9.118;2022-10-16T07:48:30;101103.0;;;22.84;27.81
41383;BME280;27971;53.902;9.118;2022-10-16T07:50:32;101114.0;;;22.87;27.83
41383;BME280;27971;53.902;9.118;2022-10-16T07:52:34;101121.0;;;21.75;28.74
41383;BME280;27971;53.902;9.118;2022-10-16T07:54:37;101125.0;;;21.3;29.14
41383;BME280;27971;53.902;9.118;2022-10-16T07:56:40;101127.0;;;21.55;28.9
41383;BME280;27971;53.902;9.118;2022-10-16T07:58:43;101134.0;;;22.86;27.84
41383;BME280;27971;53.902;9.118;2022-10-16T08:00:45;101141.0;;;22.82;27.91
41383;BME280;27971;53.902;9.118;2022-10-16T08:02:49;101139.0;;;22.78;27.8
41383;BME280;27971;53.902;9.118;2022-10-16T08:04:51;101139.0;;;22.8;27.88
41383;BME280;27971;53.902;9.118;2022-10-16T08:06:53;101140.0;;;23.42;27.43
41383;BME280;27971;53.902;9.118;2022-10-16T08:08:56;101143.0;;;22.5;28.24
41383;BME280;27971;53.902;9.118;2022-10-16T08:10:58;101142.0;;;22.61;28.09
41383;BME280;27971;53.902;9.118;2022-10-16T08:13:01;101139.0;;;22.89;27.86
41383;BME280;27971;53.902;9.118;2022-10-16T08:15:04;101139.0;;;23.66;27.18
41383;BME280;27971;53.902;9.118;2022-10-16T08:17:07;101144.0;;;24.14;26.84
41383;BME280;27971;53.902;9.118;2022-10-16T08:19:09;101146.0;;;24.15;26.75
41383;BME280;27971;53.902;9.118;2022-10-16T08:21:15;101148.0;;;23.7;27.16
41383;BME280;27971;53.902;9.118;2022-10-16T08:23:16;101153.0;;;23.3;27.6
41383;BME280;27971;53.902;9.118;2022-10-16T08:25:18;101152.0;;;23.5;27.39
41383;BME280;27971;53.902;9.118;2022-10-16T08:27:21;101152.0;;;23.67;27.29
41383;BME280;27971;53.902;9.118;2022-10-16T08:29:23;101160.0;;;23.57;27.3
41383;BME280;27971;53.902;9.118;2022-10-16T08:31:25;101165.0;;;24.33;26.78
41383;BME280;27971;53.902;9.118;2022-10-16T08:33:28;101172.0;;;23.89;27.03
41383;BME280;27971;53.902;9.118;2022-10-16T08:35:30;101169.0;;;24.01;26.96
41383;BME280;27971;53.902;9.118;2022-10-16T08:37:33;101173.0;;;23.52;27.35
41383;BME280;27971;53.902;9.118;2022-10-16T08:39:35;101177.0;;;22.89;27.93
41383;BME280;27971;53.902;9.118;2022-10-16T08:42:09;101184.0;;;22.32;28.51
41383;BME280;27971;53.902;9.118;2022-10-16T08:43:52;101185.0;;;23.18;28.13
41383;BME280;27971;53.902;9.118;2022-10-16T08:45:58;101187.0;;;23.37;27.81
41383;BME280;27971;53.902;9.118;2022-10-16T08:47:49;101194.0;;;22.83;28.2
41383;BME280;27971;53.902;9.118;2022-10-16T08:49:56;101200.0;;;23.4;27.85
41383;BME280;27971;53.902;9.118;2022-10-16T08:51:50;101203.0;;;23.4;27.9
41383;BME280;27971;53.902;9.118;2022-10-16T08:53:56;101203.0;;;23.45;27.83
41383;BME280;27971;53.902;9.118;2022-10-16T08:55:55;101202.0;;;23.38;27.99
41383;BME280;27971;53.902;9.118;2022-10-16T08:57:58;101201.0;;;23.71;27.69
41383;BME280;27971;53.902;9.118;2022-10-16T09:00:12;101206.0;;;24.08;27.28
41383;BME280;27971;53.902;9.118;2022-10-16T09:02:20;101210.0;;;23.64;27.69
41383;BME280;27971;53.902;9.118;2022-10-16T09:04:30;101212.0;;;24.27;27.27
41383;BME280;27971;53.902;9.118;2022-10-16T09:06:24;101214.0;;;23.55;28.05
41383;BME280;27971;53.902;9.118;2022-10-16T09:08:17;101216.0;;;23.57;27.99
41383;BME280;27971;53.902;9.118;2022-10-16T09:10:26;101217.0;;;23.74;27.89
41383;BME280;27971;53.902;9.118;2022-10-16T09:12:22;101225.0;;;22.3;29.13
41383;BME280;27971;53.902;9.118;2022-10-16T09:14:37;101224.0;;;21.78;29.66
41383;BME280;27971;53.902;9.118;2022-10-16T09:16:28;101228.0;;;22.38;29.25
41383;BME280;27971;53.902;9.118;2022-10-16T09:18:32;101231.0;;;22.67;28.88
41383;BME280;27971;53.902;9.118;2022-10-16T09:20:45;101231.0;;;23.79;27.88
41383;BME280;27971;53.902;9.118;2022-10-16T09:22:32;101238.0;;;24.19;27.48
41383;BME280;27971;53.902;9.118;2022-10-16T09:24:34;101236.0;;;24.28;27.16
41383;BME280;27971;53.902;9.118;2022-10-16T09:26:37;101237.0;;;23.8;27.59
41383;BME280;27971;53.902;9.118;2022-10-16T09:28:40;101238.0;;;24.05;27.33
41383;BME280;27971;53.902;9.118;2022-10-16T09:30:43;101242.0;;;23.68;27.68
41383;BME280;27971;53.902;9.118;2022-10-16T09:32:49;101254.0;;;23.77;27.57
41383;BME280;27971;53.902;9.118;2022-10-16T09:34:52;101256.0;;;23.86;27.54
41383;BME280;27971;53.902;9.118;2022-10-16T09:36:52;101250.0;;;23.27;27.9
41383;BME280;27971;53.902;9.118;2022-10-16T09:39:03;101247.0;;;23.25;27.87
41383;BME280;27971;53.902;9.118;2022-10-16T09:40:58;101245.0;;;23.34;27.8
41383;BME280;27971;53.902;9.118;2022-10-16T09:43:19;101248.0;;;23.52;27.6
41383;BME280;27971;53.902;9.118;2022-10-16T09:45:04;101252.0;;;23.3;27.67
41383;BME280;27971;53.902;9.118;2022-10-16T09:47:14;101250.0;;;22.31;28.53
41383;BME280;27971;53.902;9.118;2022-10-16T09:49:21;101255.0;;;21.87;29.07
41383;BME280;27971;53.902;9.118;2022-10-16T09:51:18;101256.0;;;21.62;29.25
41383;BME280;27971;53.902;9.118;2022-10-16T09:53:15;101254.0;;;21.73;29.14
41383;BME280;27971;53.902;9.118;2022-10-16T09:55:18;101250.0;;;21.63;29.17
41383;BME280;27971;53.902;9.118;2022-10-16T09:57:21;101254.0;;;21.97;28.82
41383;BME280;27971;53.902;9.118;2022-10-16T09:59:24;101256.0;;;21.33;29.45
41383;BME280;27971;53.902;9.118;2022-10-16T10:01:30;101258.0;;;22.05;28.89
41383;BME280;27971;53.902;9.118;2022-10-16T10:03:35;101259.0;;;22.12;28.88
41383;BME280;27971;53.902;9.118;2022-10-16T10:05:31;101262.0;;;22.09;28.99
41383;BME280;27971;53.902;9.118;2022-10-16T10:07:37;101265.0;;;21.7;29.35
41383;BME280;27971;53.902;9.118;2022-10-16T10:09:38;101269.0;;;21.71;29.46
41383;BME280;27971;53.902;9.118;2022-10-16T10:11:41;101274.0;;;21.68;29.51
41383;BME280;27971;53.902;9.118;2022-10-16T10:13:41;101278.0;;;21.69;29.53
41383;BME280;27971;53.902;9.118;2022-10-16T10:15:44;101283.0;;;22.55;28.79
41383;BME280;27971;53.902;9.118;2022-10-16T10:17:48;101288.0;;;22.73;28.69
41383;BME280;27971;53.902;9.118;2022-10-16T10:19:52;101290.0;;;22.67;28.73
41383;BME280;27971;53.902;9.118;2022-10-16T10:21:52;101292.0;;;21.66;29.66
41383;BME280;27971;53.902;9.118;2022-10-16T10:23:56;101298.0;;;22.83;28.7
41383;BME280;27971;53.902;9.118;2022-10-16T10:26:01;101301.0;;;22.79;28.81
41383;BME280;27971;53.902;9.118;2022-10-16T10:29:13;101306.0;;;23.47;28.29
41383;BME280;27971;53.902;9.118;2022-10-16T10:30:08;101310.0;;;24.18;28.16
41383;BME280;27971;53.902;9.118;2022-10-16T10:32:16;101309.0;;;23.44;28.51
41383;BME280;27971;53.902;9.118;2022-10-16T10:34:32;101313.0;;;23.09;28.69
41383;BME280;27971;53.902;9.118;2022-10-16T10:36:19;101316.0;;;22.64;29.22
41383;BME280;27971;53.902;9.118;2022-10-16T10:38:23;101317.0;;;22.95;28.88
41383;BME280;27971;53.902;9.118;2022-10-16T10:40:38;101318.0;;;23.19;28.76
41383;BME280;27971;53.902;9.118;2022-10-16T10:42:22;101318.0;;;22.9;29.06
41383;BME280;27971;53.902;9.118;2022-10-16T10:44:30;101320.0;;;23.03;28.9
41383;BME280;27971;53.902;9.118;2022-10-16T10:46:28;101323.0;;;23.42;28.44
41383;BME280;27971;53.902;9.118;2022-10-16T10:48:49;101326.0;;;23.67;28.2
41383;BME280;27971;53.902;9.118;2022-10-16T10:50:36;101330.0;;;23.82;28.19